Roxbury, Massachusetts
Current Conditions -  °F | °C
As of 10:54 AM on Wednesday 28 Jan 2015 (Local Time) from KBOS Reporting Station
Broken Clouds Broken Clouds  
Wind Chill:   Ceiling: 13000
Heat Index: 18°   Visibility: 10mi
Dew Point:   Wind: 15mph
Humidity: 57%   Direction: 300°WNW
Pressure: 29.97"   Gusts: 22mph
Location:  42.3237°N, 71.0855°W
Report Text: KBOS 281554Z 30013G19KT 10SM R04R/2000VP6000FT FEW040 BKN130 M08/M15 A2997 RMK AO2 SLP147 T10781150
Loading
Personal Weather Stations






























Interactive Weather Map New forecast layout! Learn more

10-Day Weather Forecast

Advertisements
Track Severe Weather on mobile